Time;durP1;ratioP1;P1;durP2;ratioP2;P2;SDS_P1;SDS_P2;PMS_P1;PMS_P2;Temp;Humidity;BMP_temperature;BMP_pressure;BME280_temperature;BME280_humidity;BME280_pressure;Samples;Min_cycle;Max_cycle;Signal;HPM_P1;HPM_P2
2021/06/15 00:01:24;;;;;;;11.38;6.28;;;;;;;15.60;nan;101761.72;5029185;28;20341;-74
2021/06/15 00:03:50;;;;;;;13.93;6.20;;;;;;;15.59;nan;101774.41;5028490;28;20055;-74
2021/06/15 00:06:15;;;;;;;10.27;6.22;;;;;;;15.60;nan;101767.13;5026063;28;20569;-74
2021/06/15 00:08:41;;;;;;;12.68;6.10;;;;;;;15.57;nan;101771.13;5028079;28;20083;-75
2021/06/15 00:11:06;;;;;;;13.52;5.18;;;;;;;15.53;nan;101769.19;5030218;28;20036;-74
2021/06/15 00:13:32;;;;;;;9.25;5.82;;;;;;;15.45;nan;101766.97;5034021;28;20021;-74
2021/06/15 00:15:58;;;;;;;10.43;5.68;;;;;;;15.42;nan;101769.09;5028333;28;20057;-75
2021/06/15 00:18:23;;;;;;;7.07;5.93;;;;;;;15.40;nan;101773.94;5032595;28;20029;-74
2021/06/15 00:20:50;;;;;;;13.05;7.55;;;;;;;15.37;nan;101777.16;5033142;28;20431;-74
2021/06/15 00:23:16;;;;;;;9.75;6.50;;;;;;;15.36;nan;101775.53;5028960;28;20076;-74
2021/06/15 00:25:42;;;;;;;11.25;6.78;;;;;;;15.26;nan;101774.59;5026625;28;20037;-75
2021/06/15 00:28:08;;;;;;;9.85;6.10;;;;;;;15.30;nan;101775.72;5032341;28;20152;-74
2021/06/15 00:30:34;;;;;;;10.80;5.82;;;;;;;15.31;nan;101766.56;5029692;28;20075;-74
2021/06/15 00:33:00;;;;;;;13.40;6.13;;;;;;;15.33;nan;101769.81;5025542;28;20029;-74
2021/06/15 00:35:25;;;;;;;10.07;6.05;;;;;;;15.34;nan;101772.25;5026719;28;20095;-74
2021/06/15 00:37:52;;;;;;;10.23;5.78;;;;;;;15.36;nan;101774.69;5027086;28;20029;-74
2021/06/15 00:40:18;;;;;;;14.88;7.07;;;;;;;15.35;nan;101767.69;5008134;28;20757;-74
2021/06/15 00:42:44;;;;;;;11.45;7.13;;;;;;;15.34;nan;101766.03;5013614;28;20095;-75
2021/06/15 00:45:14;;;;;;;11.82;6.65;;;;;;;15.36;nan;101758.50;5024458;28;20037;-74
2021/06/15 00:47:44;;;;;;;10.40;5.97;;;;;;;15.32;nan;101766.31;5026817;28;20064;-74
2021/06/15 00:50:10;;;;;;;8.02;5.90;;;;;;;15.25;nan;101765.66;5025534;28;20040;-75
2021/06/15 00:52:36;;;;;;;9.52;6.35;;;;;;;15.21;nan;101759.16;5032217;28;20029;-74
2021/06/15 00:55:03;;;;;;;8.85;6.18;;;;;;;15.19;nan;101760.47;5026647;28;20025;-74
2021/06/15 00:57:28;;;;;;;13.25;6.10;;;;;;;15.17;nan;101755.34;5029686;28;20041;-74
2021/06/15 00:59:55;;;;;;;10.70;5.93;;;;;;;15.19;nan;101753.19;5034421;28;20025;-74
2021/06/15 01:02:21;;;;;;;10.18;6.45;;;;;;;15.18;nan;101756.16;5014364;28;20109;-74
2021/06/15 01:04:47;;;;;;;11.40;6.55;;;;;;;15.20;nan;101760.22;5019704;28;20045;-74
2021/06/15 01:08:03;;;;;;;10.68;6.30;;;;;;;15.13;nan;101754.22;5012539;28;20029;-75
2021/06/15 01:11:03;;;;;;;8.80;6.53;;;;;;;15.14;nan;101755.03;4969476;28;20030;-74
2021/06/15 01:13:54;;;;;;;9.10;6.00;;;;;;;15.14;nan;101752.34;5027658;28;20041;-74
2021/06/15 01:16:31;;;;;;;10.20;6.63;;;;;;;15.16;nan;101750.19;5026013;28;20814;-74
2021/06/15 01:19:08;;;;;;;9.70;6.00;;;;;;;15.10;nan;101746.63;5025992;28;20086;-74
2021/06/15 01:21:47;;;;;;;11.25;6.93;;;;;;;15.08;nan;101751.44;5027264;28;20104;-74
2021/06/15 01:24:28;;;;;;;9.63;6.28;;;;;;;15.07;nan;101749.81;5024736;28;20434;-74
2021/06/15 01:27:41;;;;;;;11.13;6.47;;;;;;;15.04;nan;101755.72;5025049;28;20035;-74
2021/06/15 01:30:10;;;;;;;12.18;6.38;;;;;;;15.09;nan;101747.72;4999594;28;20068;-74
2021/06/15 01:32:37;;;;;;;10.80;5.70;;;;;;;15.06;nan;101753.59;5026474;28;20037;-75
2021/06/15 01:35:06;;;;;;;9.90;5.53;;;;;;;15.11;nan;101757.19;5009415;28;20080;-74
2021/06/15 01:37:43;;;;;;;9.70;5.90;;;;;;;15.11;nan;101753.66;5018567;28;20925;-74
2021/06/15 01:40:14;;;;;;;12.20;5.93;;;;;;;15.11;nan;101756.38;5030884;28;20017;-75
2021/06/15 01:42:49;;;;;;;9.50;6.18;;;;;;;15.06;nan;101754.41;5025497;28;20028;-74
2021/06/15 01:45:26;;;;;;;11.88;6.38;;;;;;;15.00;nan;101754.63;5026896;28;20025;-74
2021/06/15 01:48:31;;;;;;;12.98;6.63;;;;;;;14.95;nan;101758.06;5024989;28;20026;-74
2021/06/15 01:50:57;;;;;;;9.77;6.10;;;;;;;14.93;nan;101759.41;4996186;28;20064;-74
2021/06/15 01:53:26;;;;;;;11.32;6.30;;;;;;;14.89;nan;101763.66;5027447;28;20067;-74
2021/06/15 01:55:55;;;;;;;9.25;5.43;;;;;;;14.88;nan;101767.41;5015858;28;20530;-74
2021/06/15 01:58:23;;;;;;;9.63;5.72;;;;;;;14.84;nan;101763.59;5012052;28;20025;-74
2021/06/15 02:00:51;;;;;;;14.25;5.45;;;;;;;14.85;nan;101786.81;5011760;28;20041;-74
2021/06/15 02:03:17;;;;;;;9.60;6.20;;;;;;;14.88;nan;101800.59;5018547;28;20300;-74
2021/06/15 02:05:49;;;;;;;13.73;6.38;;;;;;;14.82;nan;101775.47;5027299;28;20777;-74
2021/06/15 02:08:21;;;;;;;8.65;5.70;;;;;;;14.85;nan;101782.22;5026828;28;20029;-74
2021/06/15 02:10:47;;;;;;;9.07;5.93;;;;;;;14.89;nan;101785.22;5025913;28;20048;-75
2021/06/15 02:13:13;;;;;;;12.68;6.47;;;;;;;14.90;nan;101792.25;5027291;28;20895;-74
2021/06/15 02:15:41;;;;;;;12.77;6.80;;;;;;;14.85;nan;101789.50;5035632;28;20025;-75
2021/06/15 02:18:08;;;;;;;10.30;6.30;;;;;;;14.82;nan;101785.44;5020641;28;20029;-75
2021/06/15 02:20:40;;;;;;;10.25;5.85;;;;;;;14.82;nan;101786.25;5025057;28;20045;-75
2021/06/15 02:23:08;;;;;;;9.80;6.50;;;;;;;14.85;nan;101789.50;5027375;28;20357;-75
2021/06/15 02:25:36;;;;;;;8.70;6.03;;;;;;;14.84;nan;101783.28;5026087;28;20029;-74
2021/06/15 02:28:03;;;;;;;7.43;6.00;;;;;;;14.84;nan;101780.59;5028750;28;20029;-74
2021/06/15 02:30:30;;;;;;;10.93;5.90;;;;;;;14.88;nan;101784.41;5032048;28;20171;-74
2021/06/15 02:33:00;;;;;;;10.95;6.07;;;;;;;14.88;nan;101786.31;5025616;28;20037;-75
2021/06/15 02:35:27;;;;;;;9.70;5.82;;;;;;;14.82;nan;101780.03;5022887;28;20021;-75
2021/06/15 02:38:01;;;;;;;14.27;6.72;;;;;;;14.75;nan;101785.63;5006330;28;20068;-75
2021/06/15 02:40:27;;;;;;;12.45;6.03;;;;;;;14.73;nan;101787.75;5027113;28;20036;-74
2021/06/15 02:42:55;;;;;;;12.25;6.85;;;;;;;14.70;nan;101793.63;5017623;28;20391;-75
2021/06/15 02:45:24;;;;;;;10.25;6.70;;;;;;;14.40;nan;101790.50;5030551;28;20025;-74
2021/06/15 02:47:52;;;;;;;10.35;6.38;;;;;;;14.44;nan;101789.78;5031253;28;20037;-75
2021/06/15 02:50:19;;;;;;;11.70;6.40;;;;;;;14.48;nan;101790.91;5030279;28;20040;-74
2021/06/15 02:53:10;;;;;;;11.20;6.05;;;;;;;14.43;nan;101788.16;5033613;28;20465;-75
2021/06/15 02:55:40;;;;;;;16.02;6.97;;;;;;;14.47;nan;101789.28;5028058;28;20039;-74
2021/06/15 02:58:07;;;;;;;9.55;6.53;;;;;;;14.46;nan;101797.63;5033204;28;20041;-75
2021/06/15 03:00:34;;;;;;;9.20;6.60;;;;;;;14.48;nan;101790.91;5029786;28;20447;-74
2021/06/15 03:03:00;;;;;;;10.65;6.45;;;;;;;14.50;nan;101796.88;5031008;28;20079;-74
2021/06/15 03:05:26;;;;;;;12.10;6.72;;;;;;;14.48;nan;101803.59;5031151;28;20025;-74
2021/06/15 03:07:52;;;;;;;10.43;6.95;;;;;;;14.49;nan;101802.53;5029890;28;20021;-75
2021/06/15 03:10:19;;;;;;;9.93;6.82;;;;;;;14.49;nan;101805.22;5025136;28;20101;-75
2021/06/15 03:13:15;;;;;;;10.57;6.38;;;;;;;14.49;nan;101802.53;5030152;28;20951;-74
2021/06/15 03:15:49;;;;;;;10.93;6.15;;;;;;;14.57;nan;101810.22;5014589;28;20037;-75
2021/06/15 03:18:41;;;;;;;12.77;5.93;;;;;;;14.60;nan;101812.41;5031631;28;20033;-74
2021/06/15 03:21:11;;;;;;;11.25;6.38;;;;;;;14.65;nan;101806.25;5029334;28;20048;-74
2021/06/15 03:23:40;;;;;;;12.90;6.72;;;;;;;14.68;nan;101809.25;5031762;28;20037;-73
2021/06/15 03:26:11;;;;;;;10.95;6.07;;;;;;;14.70;nan;101807.13;5031019;28;20025;-74
2021/06/15 03:28:40;;;;;;;13.60;8.27;;;;;;;14.73;nan;101812.03;5029529;28;20040;-75
2021/06/15 03:31:06;;;;;;;12.55;7.47;;;;;;;14.76;nan;101816.94;5030834;28;20028;-75
2021/06/15 03:33:35;;;;;;;14.10;7.43;;;;;;;14.81;nan;101816.19;5031277;28;20030;-74
2021/06/15 03:36:03;;;;;;;10.57;6.00;;;;;;;14.90;nan;101813.84;5013805;28;20036;-74
2021/06/15 03:38:31;;;;;;;7.90;6.60;;;;;;;14.96;nan;101818.25;5018513;28;20129;-74
2021/06/15 03:40:58;;;;;;;8.80;6.57;;;;;;;15.02;nan;101814.53;5030545;28;20025;-74
2021/06/15 03:43:27;;;;;;;10.45;6.75;;;;;;;15.08;nan;101821.63;5029144;28;20570;-75
2021/06/15 03:46:03;;;;;;;13.65;7.05;;;;;;;15.12;nan;101817.38;5024254;28;20136;-74
2021/06/15 03:48:30;;;;;;;12.38;6.07;;;;;;;15.17;nan;101825.53;5023221;28;20120;-74
2021/06/15 03:50:57;;;;;;;11.45;5.45;;;;;;;15.24;nan;101828.03;5029641;28;20017;-74
2021/06/15 03:53:29;;;;;;;8.27;5.88;;;;;;;15.31;nan;101828.66;5028178;28;20033;-75
2021/06/15 03:55:55;;;;;;;11.15;6.20;;;;;;;15.36;nan;101823.31;5012164;28;20029;-74
2021/06/15 03:58:22;;;;;;;10.38;6.72;;;;;;;15.43;nan;101824.72;5029648;28;20024;-74
2021/06/15 04:00:49;;;;;;;10.75;6.28;;;;;;;15.53;nan;101823.22;5030004;28;20025;-74
2021/06/15 04:03:16;;;;;;;10.93;5.55;;;;;;;15.60;nan;101829.25;5032070;28;20029;-74
2021/06/15 04:05:43;;;;;;;9.00;6.18;;;;;;;15.69;nan;101831.25;5032694;28;20021;-74
2021/06/15 04:08:12;;;;;;;10.85;6.80;;;;;;;15.78;nan;101828.88;5030225;28;20116;-74
2021/06/15 04:10:42;;;;;;;11.35;5.95;;;;;;;15.89;nan;101844.13;5009381;28;20030;-74
2021/06/15 04:13:09;;;;;;;9.50;6.60;;;;;;;16.00;nan;101845.03;5029569;28;20060;-75
2021/06/15 04:15:35;;;;;;;9.07;6.70;;;;;;;16.09;nan;101839.97;5030682;28;20029;-74
2021/06/15 04:18:06;;;;;;;11.23;6.88;;;;;;;16.18;nan;101836.53;5031689;28;20037;-74
2021/06/15 04:20:40;;;;;;;11.95;6.55;;;;;;;16.28;nan;101833.91;5016481;28;20029;-74
2021/06/15 04:23:07;;;;;;;12.95;6.85;;;;;;;16.39;nan;101836.69;5026727;28;20021;-74
2021/06/15 04:25:40;;;;;;;9.75;6.97;;;;;;;16.50;nan;101833.75;5027184;28;20116;-74
2021/06/15 04:28:06;;;;;;;12.98;6.90;;;;;;;16.62;nan;101837.09;5019651;28;20026;-74
2021/06/15 04:30:34;;;;;;;10.85;5.95;;;;;;;16.71;nan;101837.47;5024604;28;20031;-74
2021/06/15 04:33:03;;;;;;;11.48;7.00;;;;;;;16.82;nan;101836.41;5030447;28;20034;-74
2021/06/15 04:35:37;;;;;;;9.45;6.07;;;;;;;16.92;nan;101835.66;5025954;28;20045;-74
2021/06/15 04:38:08;;;;;;;11.93;6.18;;;;;;;17.02;nan;101827.56;5028678;28;20041;-74
2021/06/15 04:40:41;;;;;;;10.80;6.40;;;;;;;17.13;nan;101831.97;5011072;28;20484;-74
2021/06/15 04:43:26;;;;;;;15.30;6.88;;;;;;;17.18;nan;101829.25;5027239;28;20045;-74
2021/06/15 04:45:54;;;;;;;;;;;;;;;17.26;nan;101835.25;5010197;28;20060;-75
2021/06/15 04:48:31;;;;;;;10.07;6.28;;;;;;;17.38;nan;101838.53;5038487;28;19948;-74
2021/06/15 04:50:59;;;;;;;9.98;5.55;;;;;;;17.47;nan;101847.78;5027804;28;20022;-74
2021/06/15 04:53:29;;;;;;;10.40;6.53;;;;;;;17.55;nan;101854.53;5011695;28;20529;-74
2021/06/15 04:55:56;;;;;;;10.98;6.03;;;;;;;17.59;nan;101859.16;5017955;28;20627;-75
2021/06/15 04:58:23;;;;;;;9.93;6.32;;;;;;;17.67;nan;101858.66;5025970;28;20017;-74
2021/06/15 05:00:52;;;;;;;9.35;5.85;;;;;;;17.80;nan;101857.34;5022161;28;20523;-74
2021/06/15 05:03:20;;;;;;;10.30;6.45;;;;;;;17.97;nan;101863.34;5021521;28;20484;-74
2021/06/15 05:05:49;;;;;;;13.10;6.43;;;;;;;18.11;nan;101858.16;5028607;28;20029;-75
2021/06/15 05:08:20;;;;;;;7.68;5.63;;;;;;;18.25;nan;101861.16;5019511;28;20926;-75
2021/06/15 05:10:47;;;;;;;9.52;5.65;;;;;;;18.43;nan;101858.69;5024076;28;20033;-75
2021/06/15 05:13:14;;;;;;;11.27;6.40;;;;;;;18.67;nan;101867.09;5022294;28;20036;-74
2021/06/15 05:15:43;;;;;;;7.95;5.03;;;;;;;18.92;nan;101871.63;5026629;28;20507;-74
2021/06/15 05:18:10;;;;;;;9.23;5.72;;;;;;;19.17;nan;101867.19;5022702;28;20026;-73
2021/06/15 05:20:36;;;;;;;7.55;6.05;;;;;;;19.30;nan;101870.13;5021626;28;20708;-74
2021/06/15 05:23:21;;;;;;;7.30;4.95;;;;;;;19.42;nan;101872.53;5025608;28;20821;-74
2021/06/15 05:25:50;;;;;;;9.32;6.00;;;;;;;19.59;nan;101874.91;5018160;28;20037;-74
2021/06/15 05:28:17;;;;;;;11.50;5.88;;;;;;;19.52;nan;101875.16;5003242;28;20041;-73
2021/06/15 05:30:43;;;;;;;10.93;6.65;;;;;;;19.70;nan;101881.06;5018262;28;20091;-73
2021/06/15 05:33:11;;;;;;;12.98;6.70;;;;;;;19.81;nan;101880.75;5024111;28;20090;-74
2021/06/15 05:35:37;;;;;;;11.68;7.45;;;;;;;19.89;nan;101874.69;5021273;28;20033;-73
2021/06/15 05:38:02;;;;;;;9.63;6.32;;;;;;;20.04;nan;101879.19;5015711;28;20033;-73
2021/06/15 05:40:28;;;;;;;11.95;7.65;;;;;;;20.11;nan;101879.72;5016618;28;20065;-73
2021/06/15 05:42:54;;;;;;;11.95;7.70;;;;;;;20.28;nan;101895.59;5017030;28;20033;-74
2021/06/15 05:45:19;;;;;;;11.30;6.50;;;;;;;20.45;nan;101890.56;5012311;28;20032;-74
2021/06/15 05:47:45;;;;;;;12.05;7.28;;;;;;;20.58;nan;101889.09;5028210;28;20526;-74
2021/06/15 05:50:13;;;;;;;14.80;7.40;;;;;;;20.74;nan;101896.00;5024688;28;20112;-74
2021/06/15 05:52:39;;;;;;;12.23;8.02;;;;;;;20.55;nan;101895.13;5007081;28;20168;-75
2021/06/15 05:55:06;;;;;;;14.63;7.68;;;;;;;20.57;nan;101892.09;5028716;28;20517;-74
2021/06/15 05:57:32;;;;;;;13.55;8.45;;;;;;;20.75;nan;101881.28;5024849;28;20496;-74
2021/06/15 05:59:58;;;;;;;11.40;8.00;;;;;;;20.89;nan;101883.34;5024757;28;20026;-74
2021/06/15 06:02:24;;;;;;;15.73;8.63;;;;;;;21.03;nan;101876.91;5024903;28;20029;-75
2021/06/15 06:09:59;;;;;;;14.27;8.13;;;;;;;21.39;nan;101885.47;5023070;28;20650;-74
2021/06/15 06:12:24;;;;;;;15.45;8.68;;;;;;;21.41;nan;101887.91;5023682;28;20025;-74
2021/06/15 06:14:51;;;;;;;13.40;7.80;;;;;;;21.47;nan;101902.25;5021972;28;20033;-74
2021/06/15 06:17:16;;;;;;;11.50;8.70;;;;;;;21.39;nan;101899.09;5024186;28;20095;-74
2021/06/15 06:19:43;;;;;;;14.90;8.50;;;;;;;21.26;nan;101905.25;5024133;28;20033;-75
2021/06/15 06:22:08;;;;;;;12.57;7.25;;;;;;;21.28;nan;101905.78;5030493;28;20679;-75
2021/06/15 06:24:34;;;;;;;14.50;7.47;;;;;;;21.38;nan;101911.09;5028896;28;20060;-74
2021/06/15 06:26:59;;;;;;;14.73;8.23;;;;;;;21.51;nan;101904.09;5015028;28;20029;-74
2021/06/15 06:29:25;;;;;;;12.70;8.13;;;;;;;21.54;nan;101900.78;5028528;28;20017;-74
2021/06/15 06:31:51;;;;;;;12.35;7.53;;;;;;;21.54;nan;101899.97;5027198;28;20088;-75
2021/06/15 06:34:16;;;;;;;15.25;8.30;;;;;;;21.69;nan;101895.13;5028794;28;20033;-74
2021/06/15 06:36:42;;;;;;;11.95;7.15;;;;;;;21.90;nan;101903.84;5032658;28;20037;-72
2021/06/15 06:39:08;;;;;;;11.13;7.28;;;;;;;22.04;nan;101895.69;5033832;28;20021;-74
2021/06/15 06:41:35;;;;;;;12.13;6.78;;;;;;;22.19;nan;101906.38;5033225;28;20109;-74
2021/06/15 06:44:01;;;;;;;11.98;7.10;;;;;;;22.18;nan;101906.69;5031679;28;20087;-74
2021/06/15 06:46:27;;;;;;;14.85;7.22;;;;;;;22.36;nan;101907.75;5030798;28;20036;-74
2021/06/15 06:48:52;;;;;;;9.35;6.32;;;;;;;22.45;nan;101911.44;5029938;28;20037;-74
2021/06/15 06:51:19;;;;;;;12.48;6.57;;;;;;;22.63;nan;101915.22;5032196;28;20025;-74
2021/06/15 06:53:45;;;;;;;9.82;6.20;;;;;;;22.91;nan;101911.41;5031789;28;20059;-74
2021/06/15 06:56:10;;;;;;;9.32;6.63;;;;;;;22.78;nan;101909.44;5031592;28;20032;-74
2021/06/15 06:58:36;;;;;;;9.52;5.95;;;;;;;22.84;nan;101903.63;5017359;28;20061;-74
2021/06/15 07:01:03;;;;;;;9.55;4.88;;;;;;;23.06;nan;101905.66;5032456;28;20474;-75
2021/06/15 07:03:29;;;;;;;8.73;4.97;;;;;;;23.23;nan;101912.44;5032154;28;20108;-74
2021/06/15 07:05:54;;;;;;;7.47;5.32;;;;;;;23.33;nan;101912.19;5012622;28;20120;-75
2021/06/15 07:08:20;;;;;;;7.28;5.35;;;;;;;23.38;nan;101912.13;5034343;28;20078;-74
2021/06/15 07:10:46;;;;;;;9.02;5.40;;;;;;;23.46;nan;101916.84;5031221;28;20527;-75
2021/06/15 07:13:12;;;;;;;8.10;4.95;;;;;;;23.46;nan;101914.13;5029463;28;20084;-74
2021/06/15 07:15:38;;;;;;;8.48;4.85;;;;;;;23.41;nan;101906.03;5032333;28;20029;-74
2021/06/15 07:18:03;;;;;;;10.52;5.03;;;;;;;23.08;nan;101908.88;5034209;28;20028;-74
2021/06/15 07:20:29;;;;;;;8.75;5.00;;;;;;;23.06;nan;101915.78;5029873;28;20056;-74
2021/06/15 07:22:54;;;;;;;10.73;5.50;;;;;;;23.04;nan;101920.75;5030244;28;20051;-74
2021/06/15 07:25:20;;;;;;;8.15;6.00;;;;;;;23.17;nan;101912.53;5030202;28;20159;-74
2021/06/15 07:27:47;;;;;;;12.10;6.30;;;;;;;23.16;nan;101913.66;5012496;28;20037;-75
2021/06/15 07:30:14;;;;;;;9.10;6.50;;;;;;;23.38;nan;101915.66;5030046;28;20028;-75
2021/06/15 07:32:39;;;;;;;10.98;5.70;;;;;;;23.56;nan;101916.63;5022801;28;20029;-74
2021/06/15 07:35:05;;;;;;;8.57;5.88;;;;;;;23.60;nan;101923.13;5024588;28;20033;-74
2021/06/15 07:37:31;;;;;;;9.40;5.97;;;;;;;23.83;nan;101929.47;5038207;28;20122;-74
2021/06/15 07:39:57;;;;;;;9.95;5.70;;;;;;;24.05;nan;101920.44;5018259;28;20108;-74
2021/06/15 07:42:25;;;;;;;6.93;4.63;;;;;;;24.21;nan;101927.19;5026750;28;20091;-74
2021/06/15 07:44:51;;;;;;;8.85;4.75;;;;;;;24.35;nan;101927.94;5027457;28;20032;-75
2021/06/15 07:47:16;;;;;;;8.57;5.10;;;;;;;24.42;nan;101933.00;5015090;28;20180;-75
2021/06/15 07:49:42;;;;;;;9.27;5.10;;;;;;;24.55;nan;101928.53;5028343;28;20045;-74
2021/06/15 07:52:07;;;;;;;7.85;4.68;;;;;;;24.64;nan;101927.50;5028896;28;20624;-75
2021/06/15 07:54:32;;;;;;;8.57;5.10;;;;;;;24.77;nan;101930.44;5028020;28;20039;-74
2021/06/15 07:56:58;;;;;;;9.93;5.60;;;;;;;24.79;nan;101937.25;5028640;28;20091;-74
2021/06/15 07:59:23;;;;;;;9.32;5.53;;;;;;;24.49;nan;101946.25;5023127;28;20021;-74
2021/06/15 08:01:49;;;;;;;7.82;5.63;;;;;;;24.28;nan;101943.19;5030331;28;20022;-75
2021/06/15 08:04:16;;;;;;;8.32;5.28;;;;;;;24.28;nan;101948.66;5032478;28;20443;-74
2021/06/15 08:06:42;;;;;;;10.80;5.20;;;;;;;24.11;nan;101955.63;5029961;28;20025;-74
2021/06/15 08:09:08;;;;;;;11.23;5.72;;;;;;;24.01;nan;101955.03;5030647;28;20488;-75
2021/06/15 08:11:33;;;;;;;7.05;4.88;;;;;;;23.60;nan;101955.97;5029071;28;20028;-74
2021/06/15 08:13:59;;;;;;;9.70;5.57;;;;;;;23.47;nan;101957.56;5030319;28;20112;-75
2021/06/15 08:16:24;;;;;;;10.32;5.60;;;;;;;23.64;nan;101972.56;5030107;28;20516;-75
2021/06/15 08:18:50;;;;;;;8.05;5.35;;;;;;;23.72;nan;101969.94;5036710;28;20099;-74
2021/06/15 08:21:15;;;;;;;7.60;4.70;;;;;;;23.72;nan;101972.69;5034102;28;20025;-74
2021/06/15 08:23:42;;;;;;;8.82;4.50;;;;;;;23.81;nan;101978.22;5027032;28;20025;-74
2021/06/15 08:26:08;;;;;;;8.98;4.78;;;;;;;23.75;nan;101977.53;5030094;28;20136;-75
2021/06/15 08:28:33;;;;;;;8.48;4.80;;;;;;;23.76;nan;101983.81;5031115;28;20411;-74
2021/06/15 08:30:59;;;;;;;6.95;4.38;;;;;;;23.71;nan;101973.00;5030597;28;20029;-74
2021/06/15 08:33:25;;;;;;;8.82;4.88;;;;;;;23.74;nan;101966.91;5030178;28;20171;-74
2021/06/15 08:35:51;;;;;;;7.95;5.28;;;;;;;23.72;nan;101966.41;5028221;28;20036;-74
2021/06/15 08:38:18;;;;;;;11.95;5.45;;;;;;;23.49;nan;101969.00;5026517;28;20025;-74
2021/06/15 08:40:48;;;;;;;8.98;5.72;;;;;;;23.66;nan;101957.47;5024194;28;20029;-74
2021/06/15 08:43:14;;;;;;;8.45;4.88;;;;;;;23.91;nan;101971.72;5028312;28;20017;-74
2021/06/15 08:45:41;;;;;;;11.30;5.72;;;;;;;23.60;nan;101958.72;5027986;28;20036;-74
2021/06/15 08:48:08;;;;;;;10.88;4.75;;;;;;;23.56;nan;101965.06;5011689;28;20034;-74
2021/06/15 08:50:34;;;;;;;6.90;4.90;;;;;;;23.13;nan;101973.56;5030752;28;20674;-74
2021/06/15 08:53:01;;;;;;;8.55;5.07;;;;;;;23.16;nan;101973.81;5028919;28;20040;-74
2021/06/15 08:55:31;;;;;;;6.25;4.55;;;;;;;23.45;nan;101967.19;5030347;28;20028;-74
2021/06/15 08:58:42;;;;;;;8.65;4.55;;;;;;;23.64;nan;101973.38;5015819;28;20037;-75
2021/06/15 09:01:11;;;;;;;7.15;5.28;;;;;;;23.80;nan;101982.06;5026443;28;20107;-74
2021/06/15 09:03:36;;;;;;;8.60;5.43;;;;;;;23.88;nan;101980.53;5011593;28;20128;-74
2021/06/15 09:06:02;;;;;;;10.77;5.20;;;;;;;23.88;nan;101983.25;5032152;28;20129;-74
2021/06/15 09:08:30;;;;;;;11.50;5.63;;;;;;;23.86;nan;101994.53;5029735;28;22036;-74
2021/06/15 09:10:56;;;;;;;8.25;5.28;;;;;;;23.80;nan;101993.03;5008945;28;20092;-74
2021/06/15 09:13:39;;;;;;;7.38;5.68;;;;;;;23.40;nan;102002.88;5031174;28;20049;-75
2021/06/15 09:16:20;;;;;;;9.20;5.63;;;;;;;23.40;nan;101994.66;5031686;28;20430;-75
2021/06/15 09:18:46;;;;;;;9.20;6.10;;;;;;;23.51;nan;102001.53;5027062;28;20021;-75
2021/06/15 09:21:14;;;;;;;9.07;5.35;;;;;;;23.51;nan;102007.00;5025343;28;20041;-74
2021/06/15 09:23:40;;;;;;;8.90;5.30;;;;;;;23.54;nan;101997.41;5024252;28;20391;-75
2021/06/15 09:26:06;;;;;;;5.75;4.72;;;;;;;23.51;nan;102004.25;5026406;28;20028;-74
2021/06/15 09:28:33;;;;;;;10.10;5.25;;;;;;;23.60;nan;102001.66;5028989;28;20029;-74
2021/06/15 09:31:07;;;;;;;7.57;5.07;;;;;;;23.71;nan;102001.16;5028779;28;20061;-74
2021/06/15 09:33:43;;;;;;;8.18;5.50;;;;;;;23.82;nan;102009.94;5032053;28;20064;-74
2021/06/15 09:36:15;;;;;;;7.78;4.60;;;;;;;24.04;nan;102009.19;5000620;28;20632;-74
2021/06/15 09:38:54;;;;;;;6.10;5.38;;;;;;;24.00;nan;102005.44;5033982;28;20052;-75
2021/06/15 09:41:43;;;;;;;9.73;4.95;;;;;;;24.10;nan;102013.44;5035563;28;20044;-74
2021/06/15 09:44:25;;;;;;;10.25;6.03;;;;;;;24.34;nan;102018.66;5025171;28;20029;-75
2021/06/15 09:46:57;;;;;;;11.50;6.18;;;;;;;24.29;nan;102016.84;5009414;28;20025;-74
2021/06/15 09:49:33;;;;;;;12.23;6.28;;;;;;;24.15;nan;102028.94;5026678;28;20025;-75
2021/06/15 09:52:07;;;;;;;10.05;5.88;;;;;;;24.49;nan;102026.50;5019671;28;20025;-75
2021/06/15 09:54:42;;;;;;;10.88;6.10;;;;;;;24.74;nan;102027.00;5025748;28;20096;-75
2021/06/15 09:57:10;;;;;;;12.63;5.68;;;;;;;24.78;nan;102023.34;5018731;28;20041;-73
2021/06/15 09:59:36;;;;;;;11.27;5.10;;;;;;;24.89;nan;102021.13;5020558;28;20021;-73
2021/06/15 10:02:02;;;;;;;10.23;5.40;;;;;;;24.87;nan;102026.91;5020834;28;20034;-73
2021/06/15 10:04:28;;;;;;;12.07;5.43;;;;;;;24.52;nan;102017.66;5006969;28;20029;-73
2021/06/15 10:06:58;;;;;;;11.27;5.28;;;;;;;24.70;nan;102029.53;5024393;28;20570;-73
2021/06/15 10:09:33;;;;;;;11.57;5.47;;;;;;;24.55;nan;102024.44;5016878;28;20056;-73
2021/06/15 10:12:01;;;;;;;12.75;5.57;;;;;;;25.03;nan;102027.34;5015501;28;21018;-72
2021/06/15 10:14:27;;;;;;;10.20;4.30;;;;;;;25.33;nan;102027.66;5017069;28;20121;-72
2021/06/15 10:16:55;;;;;;;10.52;4.60;;;;;;;25.41;nan;102035.91;5020385;28;20136;-72
2021/06/15 10:19:21;;;;;;;9.30;4.75;;;;;;;25.19;nan;102038.72;5019522;28;20027;-73
2021/06/15 10:21:47;;;;;;;8.32;4.22;;;;;;;25.21;nan;102040.03;5021997;28;20029;-73
2021/06/15 10:24:14;;;;;;;10.82;4.47;;;;;;;25.31;nan;102041.66;5010840;28;20052;-73
2021/06/15 10:26:40;;;;;;;10.50;4.03;;;;;;;25.31;nan;102052.63;5002545;28;20026;-72
2021/06/15 10:29:12;;;;;;;8.50;3.70;;;;;;;25.12;nan;102049.31;5001184;28;20096;-72
2021/06/15 10:31:41;;;;;;;6.80;4.07;;;;;;;25.16;nan;102050.34;5017704;28;20052;-72
2021/06/15 10:34:07;;;;;;;7.70;3.90;;;;;;;25.20;nan;102046.63;5013605;28;20121;-72
2021/06/15 10:36:45;;;;;;;6.60;3.53;;;;;;;25.34;nan;102046.53;5020386;28;20132;-72
2021/06/15 10:39:17;;;;;;;9.20;3.60;;;;;;;25.02;nan;102046.88;5017055;28;20033;-72
2021/06/15 10:41:44;;;;;;;6.07;3.83;;;;;;;25.19;nan;102044.22;5019798;28;20026;-72
2021/06/15 10:44:12;;;;;;;7.15;3.40;;;;;;;25.02;nan;102049.63;5018768;28;20018;-72
2021/06/15 10:46:40;;;;;;;9.27;3.75;;;;;;;24.75;nan;102050.53;5017641;28;20087;-72
2021/06/15 10:49:15;;;;;;;8.88;3.90;;;;;;;24.52;nan;102049.72;5017198;28;20026;-72
2021/06/15 10:51:51;;;;;;;10.10;3.75;;;;;;;24.34;nan;102049.59;5015697;28;20079;-72
2021/06/15 10:54:30;;;;;;;5.38;4.15;;;;;;;24.11;nan;102047.91;5016366;28;20553;-72
2021/06/15 10:57:24;;;;;;;6.50;3.67;;;;;;;24.26;nan;102047.56;4998268;28;20036;-72
2021/06/15 10:59:59;;;;;;;5.68;3.53;;;;;;;24.50;nan;102047.31;5016479;28;20033;-72
2021/06/15 11:02:31;;;;;;;5.68;4.00;;;;;;;24.53;nan;102043.13;5020084;28;20143;-72
2021/06/15 11:04:57;;;;;;;10.18;3.78;;;;;;;24.48;nan;102037.78;5022637;28;20029;-73
2021/06/15 11:07:34;;;;;;;8.15;3.90;;;;;;;24.48;nan;102046.00;5017054;28;20029;-74
2021/06/15 11:10:00;;;;;;;9.68;4.05;;;;;;;24.34;nan;102046.84;5020621;28;20037;-72
2021/06/15 11:12:26;;;;;;;6.68;3.42;;;;;;;24.25;nan;102043.22;5022311;28;20038;-72
2021/06/15 11:15:11;;;;;;;9.27;3.88;;;;;;;23.98;nan;102054.22;5021572;28;20075;-72
2021/06/15 11:17:47;;;;;;;10.63;4.78;;;;;;;23.74;nan;102058.00;4995344;28;20064;-72
2021/06/15 11:20:24;;;;;;;8.85;4.85;;;;;;;23.52;nan;102064.16;5022797;28;20039;-72
2021/06/15 11:23:22;;;;;;;11.88;5.93;;;;;;;22.88;nan;102074.06;5021106;28;20387;-72
2021/06/15 11:25:52;;;;;;;8.55;5.28;;;;;;;22.39;nan;102068.25;5001184;28;20099;-72
2021/06/15 11:28:43;;;;;;;11.13;5.65;;;;;;;22.11;nan;102067.31;5021966;28;20040;-72
2021/06/15 11:31:17;;;;;;;8.13;4.70;;;;;;;21.82;nan;102081.81;5020640;28;20034;-72
2021/06/15 11:33:58;;;;;;;9.52;5.65;;;;;;;22.17;nan;102071.56;5018585;28;20061;-72
2021/06/15 11:36:38;;;;;;;8.68;4.55;;;;;;;22.29;nan;102069.22;5020132;28;20151;-72
2021/06/15 11:39:23;;;;;;;7.15;4.40;;;;;;;22.54;nan;102071.56;4999527;28;20033;-72
2021/06/15 11:42:06;;;;;;;9.15;4.00;;;;;;;22.45;nan;102072.56;5022525;28;20104;-72
2021/06/15 11:44:48;;;;;;;11.55;4.82;;;;;;;22.50;nan;102072.47;5023996;28;20124;-72
2021/06/15 11:47:37;;;;;;;12.25;5.25;;;;;;;21.86;nan;102074.66;5021534;28;20036;-72
2021/06/15 11:50:16;;;;;;;10.30;4.60;;;;;;;22.23;nan;102071.19;5012843;28;20073;-72
2021/06/15 11:52:44;;;;;;;8.57;5.13;;;;;;;22.39;nan;102076.44;5012441;28;20021;-72
2021/06/15 11:55:11;;;;;;;11.02;4.75;;;;;;;22.46;nan;102069.53;5015269;28;20038;-72